sensor_id;sensor_type;location;lat;lon;timestamp;P1;durP1;ratioP1;P2;durP2;ratioP2
54384;SDS011;40284;52.878;5.998;2023-02-28T00:01:25;27.58;;;11.13;;
54384;SDS011;40284;52.878;5.998;2023-02-28T00:03:52;18.00;;;7.68;;
54384;SDS011;40284;52.878;5.998;2023-02-28T00:06:18;11.45;;;4.68;;
54384;SDS011;40284;52.878;5.998;2023-02-28T00:08:44;11.77;;;4.43;;
54384;SDS011;40284;52.878;5.998;2023-02-28T00:11:11;10.98;;;4.72;;
54384;SDS011;40284;52.878;5.998;2023-02-28T00:13:39;12.82;;;4.60;;
54384;SDS011;40284;52.878;5.998;2023-02-28T00:16:06;10.82;;;4.60;;
54384;SDS011;40284;52.878;5.998;2023-02-28T00:18:34;12.15;;;4.20;;
54384;SDS011;40284;52.878;5.998;2023-02-28T00:21:00;11.02;;;3.95;;
54384;SDS011;40284;52.878;5.998;2023-02-28T00:23:26;8.23;;;4.20;;
54384;SDS011;40284;52.878;5.998;2023-02-28T00:25:53;15.10;;;6.97;;
54384;SDS011;40284;52.878;5.998;2023-02-28T00:28:19;21.83;;;10.77;;
54384;SDS011;40284;52.878;5.998;2023-02-28T00:30:45;21.13;;;8.75;;
54384;SDS011;40284;52.878;5.998;2023-02-28T00:33:11;14.57;;;7.10;;
54384;SDS011;40284;52.878;5.998;2023-02-28T00:35:37;29.40;;;14.35;;
54384;SDS011;40284;52.878;5.998;2023-02-28T00:38:04;51.83;;;22.60;;
54384;SDS011;40284;52.878;5.998;2023-02-28T00:40:30;18.13;;;8.80;;
54384;SDS011;40284;52.878;5.998;2023-02-28T00:42:56;13.20;;;5.85;;
54384;SDS011;40284;52.878;5.998;2023-02-28T00:45:22;12.73;;;4.40;;
54384;SDS011;40284;52.878;5.998;2023-02-28T00:47:48;10.50;;;4.65;;
54384;SDS011;40284;52.878;5.998;2023-02-28T00:50:18;12.80;;;4.55;;
54384;SDS011;40284;52.878;5.998;2023-02-28T00:52:45;11.77;;;4.22;;
54384;SDS011;40284;52.878;5.998;2023-02-28T00:55:11;10.43;;;4.30;;
54384;SDS011;40284;52.878;5.998;2023-02-28T00:57:37;17.00;;;5.05;;
54384;SDS011;40284;52.878;5.998;2023-02-28T01:00:03;8.52;;;3.65;;
54384;SDS011;40284;52.878;5.998;2023-02-28T01:02:29;11.90;;;4.85;;
54384;SDS011;40284;52.878;5.998;2023-02-28T01:04:55;12.75;;;4.30;;
54384;SDS011;40284;52.878;5.998;2023-02-28T01:07:24;8.93;;;3.92;;
54384;SDS011;40284;52.878;5.998;2023-02-28T01:09:50;10.00;;;4.45;;
54384;SDS011;40284;52.878;5.998;2023-02-28T01:12:17;11.30;;;5.45;;
54384;SDS011;40284;52.878;5.998;2023-02-28T01:14:43;11.27;;;4.13;;
54384;SDS011;40284;52.878;5.998;2023-02-28T01:17:09;5.47;;;3.72;;
54384;SDS011;40284;52.878;5.998;2023-02-28T01:19:35;16.23;;;4.40;;
54384;SDS011;40284;52.878;5.998;2023-02-28T01:22:02;21.13;;;5.35;;
54384;SDS011;40284;52.878;5.998;2023-02-28T01:24:28;13.05;;;5.05;;
54384;SDS011;40284;52.878;5.998;2023-02-28T01:26:54;13.98;;;5.68;;
54384;SDS011;40284;52.878;5.998;2023-02-28T01:29:20;13.15;;;5.47;;
54384;SDS011;40284;52.878;5.998;2023-02-28T01:31:46;9.90;;;4.60;;
54384;SDS011;40284;52.878;5.998;2023-02-28T01:34:12;14.48;;;4.75;;
54384;SDS011;40284;52.878;5.998;2023-02-28T01:36:38;15.07;;;5.10;;
54384;SDS011;40284;52.878;5.998;2023-02-28T01:39:04;14.77;;;5.50;;
54384;SDS011;40284;52.878;5.998;2023-02-28T01:41:32;13.35;;;4.93;;
54384;SDS011;40284;52.878;5.998;2023-02-28T01:43:59;11.77;;;5.45;;
54384;SDS011;40284;52.878;5.998;2023-02-28T01:46:28;14.15;;;5.32;;
54384;SDS011;40284;52.878;5.998;2023-02-28T01:48:57;16.80;;;6.10;;
54384;SDS011;40284;52.878;5.998;2023-02-28T01:51:27;13.15;;;5.00;;
54384;SDS011;40284;52.878;5.998;2023-02-28T01:54:02;10.27;;;4.95;;
54384;SDS011;40284;52.878;5.998;2023-02-28T01:56:30;13.02;;;5.22;;
54384;SDS011;40284;52.878;5.998;2023-02-28T01:58:58;10.13;;;5.57;;
54384;SDS011;40284;52.878;5.998;2023-02-28T02:01:25;8.90;;;5.35;;
54384;SDS011;40284;52.878;5.998;2023-02-28T02:03:53;13.27;;;6.03;;
54384;SDS011;40284;52.878;5.998;2023-02-28T02:06:25;13.52;;;6.30;;
54384;SDS011;40284;52.878;5.998;2023-02-28T02:08:51;10.32;;;5.20;;
54384;SDS011;40284;52.878;5.998;2023-02-28T02:11:18;13.85;;;5.50;;
54384;SDS011;40284;52.878;5.998;2023-02-28T02:19:06;12.75;;;5.57;;
54384;SDS011;40284;52.878;5.998;2023-02-28T02:22:12;13.15;;;5.90;;
54384;SDS011;40284;52.878;5.998;2023-02-28T02:24:45;12.23;;;5.90;;
54384;SDS011;40284;52.878;5.998;2023-02-28T02:27:16;12.48;;;6.03;;
54384;SDS011;40284;52.878;5.998;2023-02-28T02:32:41;12.63;;;6.53;;
54384;SDS011;40284;52.878;5.998;2023-02-28T02:35:12;15.15;;;5.53;;
54384;SDS011;40284;52.878;5.998;2023-02-28T02:45:06;17.00;;;6.53;;
54384;SDS011;40284;52.878;5.998;2023-02-28T02:47:33;9.40;;;5.43;;
54384;SDS011;40284;52.878;5.998;2023-02-28T02:50:02;10.10;;;5.75;;
54384;SDS011;40284;52.878;5.998;2023-02-28T02:52:32;11.43;;;5.32;;
54384;SDS011;40284;52.878;5.998;2023-02-28T02:55:00;12.57;;;5.20;;
54384;SDS011;40284;52.878;5.998;2023-02-28T02:57:32;13.60;;;6.60;;
54384;SDS011;40284;52.878;5.998;2023-02-28T02:59:59;8.90;;;5.35;;
54384;SDS011;40284;52.878;5.998;2023-02-28T03:02:26;11.27;;;6.15;;
54384;SDS011;40284;52.878;5.998;2023-02-28T03:05:00;9.63;;;5.68;;
54384;SDS011;40284;52.878;5.998;2023-02-28T03:07:27;14.05;;;7.10;;
54384;SDS011;40284;52.878;5.998;2023-02-28T03:09:54;11.68;;;6.40;;
54384;SDS011;40284;52.878;5.998;2023-02-28T03:12:20;9.77;;;7.13;;
54384;SDS011;40284;52.878;5.998;2023-02-28T03:14:56;14.80;;;7.18;;
54384;SDS011;40284;52.878;5.998;2023-02-28T03:17:34;16.92;;;7.18;;
54384;SDS011;40284;52.878;5.998;2023-02-28T03:25:32;15.43;;;7.63;;
54384;SDS011;40284;52.878;5.998;2023-02-28T03:30:27;13.43;;;7.38;;
54384;SDS011;40284;52.878;5.998;2023-02-28T03:33:03;13.90;;;6.68;;
54384;SDS011;40284;52.878;5.998;2023-02-28T03:35:32;12.07;;;6.63;;
54384;SDS011;40284;52.878;5.998;2023-02-28T03:38:11;12.63;;;6.40;;
54384;SDS011;40284;52.878;5.998;2023-02-28T03:40:39;14.32;;;7.03;;
54384;SDS011;40284;52.878;5.998;2023-02-28T03:43:09;10.63;;;6.30;;
54384;SDS011;40284;52.878;5.998;2023-02-28T03:45:37;9.65;;;5.45;;
54384;SDS011;40284;52.878;5.998;2023-02-28T03:48:09;8.50;;;5.75;;
54384;SDS011;40284;52.878;5.998;2023-02-28T03:50:40;12.05;;;6.03;;
54384;SDS011;40284;52.878;5.998;2023-02-28T03:55:42;11.52;;;6.40;;
54384;SDS011;40284;52.878;5.998;2023-02-28T03:58:23;10.65;;;5.55;;
54384;SDS011;40284;52.878;5.998;2023-02-28T04:00:53;11.93;;;6.05;;
54384;SDS011;40284;52.878;5.998;2023-02-28T04:03:21;10.07;;;5.38;;
54384;SDS011;40284;52.878;5.998;2023-02-28T04:05:49;10.70;;;5.22;;
54384;SDS011;40284;52.878;5.998;2023-02-28T04:08:15;10.13;;;5.13;;
54384;SDS011;40284;52.878;5.998;2023-02-28T04:10:42;8.85;;;5.53;;
54384;SDS011;40284;52.878;5.998;2023-02-28T04:13:11;8.52;;;5.55;;
54384;SDS011;40284;52.878;5.998;2023-02-28T04:15:37;9.68;;;5.28;;
54384;SDS011;40284;52.878;5.998;2023-02-28T04:18:03;6.03;;;4.70;;
54384;SDS011;40284;52.878;5.998;2023-02-28T04:20:29;11.52;;;5.80;;
54384;SDS011;40284;52.878;5.998;2023-02-28T04:22:55;9.48;;;5.55;;
54384;SDS011;40284;52.878;5.998;2023-02-28T04:25:21;8.60;;;5.50;;
54384;SDS011;40284;52.878;5.998;2023-02-28T04:27:47;6.35;;;5.18;;
54384;SDS011;40284;52.878;5.998;2023-02-28T04:30:13;7.57;;;5.13;;
54384;SDS011;40284;52.878;5.998;2023-02-28T04:32:39;9.23;;;6.25;;
54384;SDS011;40284;52.878;5.998;2023-02-28T04:35:05;9.77;;;6.35;;
54384;SDS011;40284;52.878;5.998;2023-02-28T04:37:31;7.93;;;5.53;;
54384;SDS011;40284;52.878;5.998;2023-02-28T04:40:00;10.50;;;6.75;;
54384;SDS011;40284;52.878;5.998;2023-02-28T04:42:26;11.38;;;7.05;;
54384;SDS011;40284;52.878;5.998;2023-02-28T04:44:52;14.48;;;7.95;;
54384;SDS011;40284;52.878;5.998;2023-02-28T04:47:18;14.10;;;8.95;;
54384;SDS011;40284;52.878;5.998;2023-02-28T04:49:44;16.95;;;10.68;;
54384;SDS011;40284;52.878;5.998;2023-02-28T04:52:10;21.00;;;11.25;;
54384;SDS011;40284;52.878;5.998;2023-02-28T04:54:38;15.88;;;9.48;;
54384;SDS011;40284;52.878;5.998;2023-02-28T04:57:04;13.93;;;9.80;;
54384;SDS011;40284;52.878;5.998;2023-02-28T04:59:30;18.48;;;10.70;;
54384;SDS011;40284;52.878;5.998;2023-02-28T05:01:57;17.70;;;11.32;;
54384;SDS011;40284;52.878;5.998;2023-02-28T05:04:23;22.30;;;12.25;;
54384;SDS011;40284;52.878;5.998;2023-02-28T05:06:49;18.00;;;11.63;;
54384;SDS011;40284;52.878;5.998;2023-02-28T05:09:15;14.05;;;10.48;;
54384;SDS011;40284;52.878;5.998;2023-02-28T05:11:41;16.17;;;10.80;;
54384;SDS011;40284;52.878;5.998;2023-02-28T05:14:11;21.02;;;12.15;;
54384;SDS011;40284;52.878;5.998;2023-02-28T05:16:38;16.63;;;12.20;;
54384;SDS011;40284;52.878;5.998;2023-02-28T05:19:04;18.70;;;11.32;;
54384;SDS011;40284;52.878;5.998;2023-02-28T05:21:31;20.13;;;12.27;;
54384;SDS011;40284;52.878;5.998;2023-02-28T05:23:58;17.52;;;12.38;;
54384;SDS011;40284;52.878;5.998;2023-02-28T05:26:25;18.05;;;12.15;;
54384;SDS011;40284;52.878;5.998;2023-02-28T05:28:51;24.65;;;12.07;;
54384;SDS011;40284;52.878;5.998;2023-02-28T05:31:17;16.20;;;10.52;;
54384;SDS011;40284;52.878;5.998;2023-02-28T05:33:43;16.70;;;12.30;;
54384;SDS011;40284;52.878;5.998;2023-02-28T05:36:10;22.35;;;13.00;;
54384;SDS011;40284;52.878;5.998;2023-02-28T05:38:36;22.70;;;12.32;;
54384;SDS011;40284;52.878;5.998;2023-02-28T05:41:06;21.30;;;13.85;;
54384;SDS011;40284;52.878;5.998;2023-02-28T05:43:32;18.25;;;13.25;;
54384;SDS011;40284;52.878;5.998;2023-02-28T05:45:58;20.88;;;13.30;;
54384;SDS011;40284;52.878;5.998;2023-02-28T05:48:24;21.23;;;13.50;;
54384;SDS011;40284;52.878;5.998;2023-02-28T05:50:51;18.08;;;13.43;;
54384;SDS011;40284;52.878;5.998;2023-02-28T05:53:17;21.52;;;14.45;;
54384;SDS011;40284;52.878;5.998;2023-02-28T05:55:43;21.55;;;13.63;;
54384;SDS011;40284;52.878;5.998;2023-02-28T05:58:09;19.27;;;13.85;;
54384;SDS011;40284;52.878;5.998;2023-02-28T06:00:35;19.83;;;13.82;;
54384;SDS011;40284;52.878;5.998;2023-02-28T06:03:01;19.45;;;13.73;;
54384;SDS011;40284;52.878;5.998;2023-02-28T06:05:27;18.63;;;12.75;;
54384;SDS011;40284;52.878;5.998;2023-02-28T06:07:53;18.08;;;12.15;;
54384;SDS011;40284;52.878;5.998;2023-02-28T06:10:19;17.83;;;11.68;;
54384;SDS011;40284;52.878;5.998;2023-02-28T06:12:45;16.25;;;11.38;;
54384;SDS011;40284;52.878;5.998;2023-02-28T06:15:12;20.95;;;13.18;;
54384;SDS011;40284;52.878;5.998;2023-02-28T06:17:39;19.73;;;12.90;;
54384;SDS011;40284;52.878;5.998;2023-02-28T06:20:06;19.85;;;13.40;;
54384;SDS011;40284;52.878;5.998;2023-02-28T06:22:33;18.83;;;12.18;;
54384;SDS011;40284;52.878;5.998;2023-02-28T06:24:59;14.95;;;10.63;;
54384;SDS011;40284;52.878;5.998;2023-02-28T06:27:25;20.08;;;12.43;;
54384;SDS011;40284;52.878;5.998;2023-02-28T06:29:53;17.88;;;12.57;;
54384;SDS011;40284;52.878;5.998;2023-02-28T06:32:20;18.50;;;12.98;;
54384;SDS011;40284;52.878;5.998;2023-02-28T06:34:46;19.15;;;12.93;;
54384;SDS011;40284;52.878;5.998;2023-02-28T06:37:12;18.88;;;12.77;;
54384;SDS011;40284;52.878;5.998;2023-02-28T06:39:38;19.05;;;13.15;;
54384;SDS011;40284;52.878;5.998;2023-02-28T06:42:05;20.58;;;14.50;;
54384;SDS011;40284;52.878;5.998;2023-02-28T06:44:31;17.38;;;13.30;;
54384;SDS011;40284;52.878;5.998;2023-02-28T06:47:00;19.13;;;12.70;;
54384;SDS011;40284;52.878;5.998;2023-02-28T06:49:28;20.58;;;14.35;;
54384;SDS011;40284;52.878;5.998;2023-02-28T06:51:54;23.38;;;14.55;;
54384;SDS011;40284;52.878;5.998;2023-02-28T06:54:20;20.20;;;13.82;;
54384;SDS011;40284;52.878;5.998;2023-02-28T06:56:46;20.95;;;14.15;;
54384;SDS011;40284;52.878;5.998;2023-02-28T06:59:13;21.98;;;13.65;;
54384;SDS011;40284;52.878;5.998;2023-02-28T07:01:39;21.88;;;14.35;;
54384;SDS011;40284;52.878;5.998;2023-02-28T07:04:05;19.55;;;13.88;;
54384;SDS011;40284;52.878;5.998;2023-02-28T07:06:32;19.33;;;12.65;;
54384;SDS011;40284;52.878;5.998;2023-02-28T07:08:58;23.70;;;13.85;;
54384;SDS011;40284;52.878;5.998;2023-02-28T07:11:26;21.95;;;14.43;;
54384;SDS011;40284;52.878;5.998;2023-02-28T07:13:55;21.67;;;13.93;;
54384;SDS011;40284;52.878;5.998;2023-02-28T07:16:22;20.88;;;13.75;;
54384;SDS011;40284;52.878;5.998;2023-02-28T07:18:48;18.05;;;12.95;;
54384;SDS011;40284;52.878;5.998;2023-02-28T07:21:14;20.73;;;14.75;;
54384;SDS011;40284;52.878;5.998;2023-02-28T07:23:41;26.20;;;15.85;;
54384;SDS011;40284;52.878;5.998;2023-02-28T07:26:10;28.40;;;15.35;;
54384;SDS011;40284;52.878;5.998;2023-02-28T07:28:37;24.48;;;15.98;;
54384;SDS011;40284;52.878;5.998;2023-02-28T07:31:04;21.75;;;14.05;;
54384;SDS011;40284;52.878;5.998;2023-02-28T07:33:30;19.45;;;14.23;;
54384;SDS011;40284;52.878;5.998;2023-02-28T07:36:00;19.77;;;14.80;;
54384;SDS011;40284;52.878;5.998;2023-02-28T07:38:26;18.52;;;13.60;;
54384;SDS011;40284;52.878;5.998;2023-02-28T07:40:52;16.92;;;12.80;;
54384;SDS011;40284;52.878;5.998;2023-02-28T07:43:18;20.80;;;13.02;;
54384;SDS011;40284;52.878;5.998;2023-02-28T07:45:44;14.77;;;11.82;;
54384;SDS011;40284;52.878;5.998;2023-02-28T07:48:10;12.70;;;10.70;;
54384;SDS011;40284;52.878;5.998;2023-02-28T07:50:36;15.98;;;10.63;;
54384;SDS011;40284;52.878;5.998;2023-02-28T07:53:02;17.02;;;11.98;;
54384;SDS011;40284;52.878;5.998;2023-02-28T07:55:29;61.85;;;29.80;;
54384;SDS011;40284;52.878;5.998;2023-02-28T07:57:56;73.03;;;38.67;;
54384;SDS011;40284;52.878;5.998;2023-02-28T08:00:22;69.38;;;36.38;;
54384;SDS011;40284;52.878;5.998;2023-02-28T08:02:49;82.55;;;42.20;;
54384;SDS011;40284;52.878;5.998;2023-02-28T08:05:15;75.07;;;40.40;;
54384;SDS011;40284;52.878;5.998;2023-02-28T08:07:41;43.90;;;24.73;;
54384;SDS011;40284;52.878;5.998;2023-02-28T08:10:07;41.13;;;22.65;;
54384;SDS011;40284;52.878;5.998;2023-02-28T08:12:35;39.72;;;23.33;;
54384;SDS011;40284;52.878;5.998;2023-02-28T08:15:01;43.53;;;22.95;;
54384;SDS011;40284;52.878;5.998;2023-02-28T08:17:27;34.80;;;19.30;;
54384;SDS011;40284;52.878;5.998;2023-02-28T08:19:53;29.95;;;18.13;;
54384;SDS011;40284;52.878;5.998;2023-02-28T08:22:19;40.08;;;21.48;;
54384;SDS011;40284;52.878;5.998;2023-02-28T08:24:45;31.65;;;19.92;;
54384;SDS011;40284;52.878;5.998;2023-02-28T08:27:11;25.42;;;16.98;;
54384;SDS011;40284;52.878;5.998;2023-02-28T08:29:38;29.10;;;18.40;;
54384;SDS011;40284;52.878;5.998;2023-02-28T08:32:05;26.85;;;18.10;;
54384;SDS011;40284;52.878;5.998;2023-02-28T08:34:31;26.02;;;17.20;;
54384;SDS011;40284;52.878;5.998;2023-02-28T08:36:57;24.00;;;15.93;;
54384;SDS011;40284;52.878;5.998;2023-02-28T08:39:24;19.85;;;14.98;;
54384;SDS011;40284;52.878;5.998;2023-02-28T08:41:50;23.50;;;15.00;;
54384;SDS011;40284;52.878;5.998;2023-02-28T08:44:16;23.52;;;14.48;;
54384;SDS011;40284;52.878;5.998;2023-02-28T08:46:42;20.45;;;14.05;;
54384;SDS011;40284;52.878;5.998;2023-02-28T08:49:09;20.58;;;13.90;;
54384;SDS011;40284;52.878;5.998;2023-02-28T08:51:36;22.25;;;14.68;;
54384;SDS011;40284;52.878;5.998;2023-02-28T08:54:04;20.15;;;13.75;;
54384;SDS011;40284;52.878;5.998;2023-02-28T08:56:30;19.45;;;14.25;;
54384;SDS011;40284;52.878;5.998;2023-02-28T08:58:56;24.25;;;14.82;;
54384;SDS011;40284;52.878;5.998;2023-02-28T09:01:24;18.48;;;14.38;;
54384;SDS011;40284;52.878;5.998;2023-02-28T09:03:52;21.23;;;14.57;;
54384;SDS011;40284;52.878;5.998;2023-02-28T09:06:18;17.88;;;12.98;;
54384;SDS011;40284;52.878;5.998;2023-02-28T09:08:45;21.23;;;13.43;;
54384;SDS011;40284;52.878;5.998;2023-02-28T09:11:11;21.25;;;14.80;;
54384;SDS011;40284;52.878;5.998;2023-02-28T09:13:38;21.55;;;14.07;;
54384;SDS011;40284;52.878;5.998;2023-02-28T09:16:05;22.17;;;14.50;;
54384;SDS011;40284;52.878;5.998;2023-02-28T09:18:31;22.58;;;14.10;;
54384;SDS011;40284;52.878;5.998;2023-02-28T09:20:59;25.48;;;15.05;;
54384;SDS011;40284;52.878;5.998;2023-02-28T09:23:25;23.63;;;14.95;;
54384;SDS011;40284;52.878;5.998;2023-02-28T09:25:52;27.92;;;16.98;;
54384;SDS011;40284;52.878;5.998;2023-02-28T09:28:18;26.23;;;18.20;;
54384;SDS011;40284;52.878;5.998;2023-02-28T09:30:45;31.38;;;19.55;;
54384;SDS011;40284;52.878;5.998;2023-02-28T09:33:12;34.58;;;19.25;;
54384;SDS011;40284;52.878;5.998;2023-02-28T09:35:38;34.28;;;19.98;;
54384;SDS011;40284;52.878;5.998;2023-02-28T09:38:04;28.17;;;18.88;;
54384;SDS011;40284;52.878;5.998;2023-02-28T09:40:34;29.55;;;17.85;;
54384;SDS011;40284;52.878;5.998;2023-02-28T09:43:01;21.63;;;15.75;;
54384;SDS011;40284;52.878;5.998;2023-02-28T09:45:32;24.25;;;15.27;;
54384;SDS011;40284;52.878;5.998;2023-02-28T09:47:59;27.48;;;17.65;;
54384;SDS011;40284;52.878;5.998;2023-02-28T09:52:56;32.92;;;20.10;;
54384;SDS011;40284;52.878;5.998;2023-02-28T09:57:52;44.92;;;25.83;;
54384;SDS011;40284;52.878;5.998;2023-02-28T10:00:26;43.58;;;25.48;;
54384;SDS011;40284;52.878;5.998;2023-02-28T10:05:24;36.25;;;20.98;;
54384;SDS011;40284;52.878;5.998;2023-02-28T10:08:03;35.00;;;20.30;;
54384;SDS011;40284;52.878;5.998;2023-02-28T10:13:00;30.90;;;18.90;;
54384;SDS011;40284;52.878;5.998;2023-02-28T10:15:28;29.05;;;15.80;;
54384;SDS011;40284;52.878;5.998;2023-02-28T10:17:57;18.63;;;12.15;;
54384;SDS011;40284;52.878;5.998;2023-02-28T10:20:24;22.70;;;14.05;;
54384;SDS011;40284;52.878;5.998;2023-02-28T10:22:57;17.65;;;10.27;;
54384;SDS011;40284;52.878;5.998;2023-02-28T10:25:28;14.05;;;8.80;;
54384;SDS011;40284;52.878;5.998;2023-02-28T10:28:15;10.85;;;7.18;;
54384;SDS011;40284;52.878;5.998;2023-02-28T10:30:45;9.68;;;5.82;;
54384;SDS011;40284;52.878;5.998;2023-02-28T10:33:31;5.97;;;3.65;;
54384;SDS011;40284;52.878;5.998;2023-02-28T10:35:57;6.38;;;4.55;;
54384;SDS011;40284;52.878;5.998;2023-02-28T10:38:25;7.88;;;3.97;;
54384;SDS011;40284;52.878;5.998;2023-02-28T10:40:51;5.57;;;3.75;;
54384;SDS011;40284;52.878;5.998;2023-02-28T10:43:19;6.97;;;3.92;;
54384;SDS011;40284;52.878;5.998;2023-02-28T10:48:40;7.38;;;4.50;;
54384;SDS011;40284;52.878;5.998;2023-02-28T10:51:14;6.03;;;3.60;;
54384;SDS011;40284;52.878;5.998;2023-02-28T11:03:47;9.05;;;5.30;;
54384;SDS011;40284;52.878;5.998;2023-02-28T11:06:15;7.95;;;5.03;;
54384;SDS011;40284;52.878;5.998;2023-02-28T11:08:45;9.63;;;5.40;;
54384;SDS011;40284;52.878;5.998;2023-02-28T11:11:12;10.40;;;5.85;;
54384;SDS011;40284;52.878;5.998;2023-02-28T11:13:38;13.00;;;5.82;;
54384;SDS011;40284;52.878;5.998;2023-02-28T11:16:05;9.75;;;5.18;;
54384;SDS011;40284;52.878;5.998;2023-02-28T11:18:40;10.85;;;4.63;;
54384;SDS011;40284;52.878;5.998;2023-02-28T11:21:07;7.20;;;4.55;;
54384;SDS011;40284;52.878;5.998;2023-02-28T11:23:35;8.27;;;4.68;;
54384;SDS011;40284;52.878;5.998;2023-02-28T11:26:03;6.68;;;4.72;;
54384;SDS011;40284;52.878;5.998;2023-02-28T11:28:40;13.52;;;6.90;;
54384;SDS011;40284;52.878;5.998;2023-02-28T11:33:40;10.07;;;5.82;;
54384;SDS011;40284;52.878;5.998;2023-02-28T11:36:17;11.68;;;6.88;;
54384;SDS011;40284;52.878;5.998;2023-02-28T11:38:44;16.77;;;9.32;;
54384;SDS011;40284;52.878;5.998;2023-02-28T11:41:15;16.65;;;7.65;;
54384;SDS011;40284;52.878;5.998;2023-02-28T11:46:34;8.98;;;5.40;;
54384;SDS011;40284;52.878;5.998;2023-02-28T11:51:47;7.43;;;4.05;;
54384;SDS011;40284;52.878;5.998;2023-02-28T12:04:33;7.05;;;4.10;;
54384;SDS011;40284;52.878;5.998;2023-02-28T12:09:32;4.95;;;3.45;;
54384;SDS011;40284;52.878;5.998;2023-02-28T12:12:18;3.88;;;2.88;;
54384;SDS011;40284;52.878;5.998;2023-02-28T12:27:46;6.80;;;3.83;;
54384;SDS011;40284;52.878;5.998;2023-02-28T12:32:52;6.28;;;3.65;;
54384;SDS011;40284;52.878;5.998;2023-02-28T12:35:25;6.60;;;3.70;;
54384;SDS011;40284;52.878;5.998;2023-02-28T12:40:44;5.03;;;3.47;;
54384;SDS011;40284;52.878;5.998;2023-02-28T12:43:12;5.38;;;3.65;;
54384;SDS011;40284;52.878;5.998;2023-02-28T12:45:40;6.00;;;4.20;;
54384;SDS011;40284;52.878;5.998;2023-02-28T12:48:08;5.57;;;3.95;;
54384;SDS011;40284;52.878;5.998;2023-02-28T12:50:35;7.82;;;5.13;;
54384;SDS011;40284;52.878;5.998;2023-02-28T12:55:35;5.32;;;4.10;;
54384;SDS011;40284;52.878;5.998;2023-02-28T13:00:34;5.38;;;4.18;;
54384;SDS011;40284;52.878;5.998;2023-02-28T13:10:44;5.68;;;3.90;;
54384;SDS011;40284;52.878;5.998;2023-02-28T13:13:14;5.80;;;4.25;;
54384;SDS011;40284;52.878;5.998;2023-02-28T13:15:41;4.80;;;3.80;;
54384;SDS011;40284;52.878;5.998;2023-02-28T13:18:35;6.40;;;4.13;;
54384;SDS011;40284;52.878;5.998;2023-02-28T13:21:02;5.82;;;4.47;;
54384;SDS011;40284;52.878;5.998;2023-02-28T13:23:38;7.68;;;4.78;;
54384;SDS011;40284;52.878;5.998;2023-02-28T13:26:04;6.15;;;4.28;;
54384;SDS011;40284;52.878;5.998;2023-02-28T13:31:15;5.72;;;4.28;;
54384;SDS011;40284;52.878;5.998;2023-02-28T13:38:51;8.20;;;4.85;;
54384;SDS011;40284;52.878;5.998;2023-02-28T13:44:07;6.70;;;4.80;;
54384;SDS011;40284;52.878;5.998;2023-02-28T13:46:34;6.28;;;4.57;;
54384;SDS011;40284;52.878;5.998;2023-02-28T13:51:47;7.78;;;5.22;;
54384;SDS011;40284;52.878;5.998;2023-02-28T13:56:52;7.15;;;4.45;;
54384;SDS011;40284;52.878;5.998;2023-02-28T14:01:56;9.27;;;5.30;;
54384;SDS011;40284;52.878;5.998;2023-02-28T14:06:53;11.20;;;6.68;;
54384;SDS011;40284;52.878;5.998;2023-02-28T14:09:30;8.15;;;4.53;;
54384;SDS011;40284;52.878;5.998;2023-02-28T14:11:57;6.53;;;4.40;;
54384;SDS011;40284;52.878;5.998;2023-02-28T14:17:13;6.78;;;4.97;;
54384;SDS011;40284;52.878;5.998;2023-02-28T14:19:41;11.13;;;6.25;;
54384;SDS011;40284;52.878;5.998;2023-02-28T14:24:59;6.57;;;4.43;;
54384;SDS011;40284;52.878;5.998;2023-02-28T14:30:17;9.05;;;4.90;;
54384;SDS011;40284;52.878;5.998;2023-02-28T14:38:28;8.48;;;6.05;;
54384;SDS011;40284;52.878;5.998;2023-02-28T14:40:56;8.43;;;4.85;;
54384;SDS011;40284;52.878;5.998;2023-02-28T14:43:24;5.95;;;4.20;;
54384;SDS011;40284;52.878;5.998;2023-02-28T14:45:54;5.65;;;4.57;;
54384;SDS011;40284;52.878;5.998;2023-02-28T14:48:21;6.25;;;3.85;;
54384;SDS011;40284;52.878;5.998;2023-02-28T14:50:49;4.93;;;3.75;;
54384;SDS011;40284;52.878;5.998;2023-02-28T14:53:18;7.35;;;5.10;;
54384;SDS011;40284;52.878;5.998;2023-02-28T14:55:46;7.05;;;4.40;;
54384;SDS011;40284;52.878;5.998;2023-02-28T15:01:09;6.88;;;3.80;;
54384;SDS011;40284;52.878;5.998;2023-02-28T15:03:37;7.03;;;4.35;;
54384;SDS011;40284;52.878;5.998;2023-02-28T15:06:13;5.78;;;4.25;;
54384;SDS011;40284;52.878;5.998;2023-02-28T15:08:40;4.97;;;4.05;;
54384;SDS011;40284;52.878;5.998;2023-02-28T15:13:36;6.10;;;4.38;;
54384;SDS011;40284;52.878;5.998;2023-02-28T15:16:04;7.05;;;4.30;;
54384;SDS011;40284;52.878;5.998;2023-02-28T15:18:33;5.93;;;4.55;;
54384;SDS011;40284;52.878;5.998;2023-02-28T15:21:03;9.65;;;5.40;;
54384;SDS011;40284;52.878;5.998;2023-02-28T15:23:31;11.40;;;4.53;;
54384;SDS011;40284;52.878;5.998;2023-02-28T15:25:57;5.97;;;4.70;;
54384;SDS011;40284;52.878;5.998;2023-02-28T15:28:24;7.13;;;4.38;;
54384;SDS011;40284;52.878;5.998;2023-02-28T15:30:53;6.35;;;4.32;;
54384;SDS011;40284;52.878;5.998;2023-02-28T15:33:21;7.90;;;5.45;;
54384;SDS011;40284;52.878;5.998;2023-02-28T15:35:48;5.07;;;4.10;;
54384;SDS011;40284;52.878;5.998;2023-02-28T15:38:18;8.27;;;4.20;;
54384;SDS011;40284;52.878;5.998;2023-02-28T15:40:51;4.85;;;4.32;;
54384;SDS011;40284;52.878;5.998;2023-02-28T15:43:30;4.93;;;3.55;;
54384;SDS011;40284;52.878;5.998;2023-02-28T15:51:05;9.70;;;4.57;;
54384;SDS011;40284;52.878;5.998;2023-02-28T15:56:00;8.70;;;4.30;;
54384;SDS011;40284;52.878;5.998;2023-02-28T15:58:26;5.78;;;4.20;;
54384;SDS011;40284;52.878;5.998;2023-02-28T16:01:16;9.50;;;5.55;;
54384;SDS011;40284;52.878;5.998;2023-02-28T16:03:47;8.02;;;4.50;;
54384;SDS011;40284;52.878;5.998;2023-02-28T16:08:59;6.20;;;4.90;;
54384;SDS011;40284;52.878;5.998;2023-02-28T16:11:25;6.50;;;4.45;;
54384;SDS011;40284;52.878;5.998;2023-02-28T16:13:51;6.35;;;4.30;;
54384;SDS011;40284;52.878;5.998;2023-02-28T16:16:19;7.63;;;4.85;;
54384;SDS011;40284;52.878;5.998;2023-02-28T16:18:46;7.28;;;4.97;;
54384;SDS011;40284;52.878;5.998;2023-02-28T16:21:12;10.63;;;5.53;;
54384;SDS011;40284;52.878;5.998;2023-02-28T16:23:38;11.35;;;5.38;;
54384;SDS011;40284;52.878;5.998;2023-02-28T16:26:04;8.23;;;5.10;;
54384;SDS011;40284;52.878;5.998;2023-02-28T16:28:32;7.15;;;5.50;;
54384;SDS011;40284;52.878;5.998;2023-02-28T16:31:00;6.68;;;4.93;;
54384;SDS011;40284;52.878;5.998;2023-02-28T16:33:27;9.68;;;5.15;;
54384;SDS011;40284;52.878;5.998;2023-02-28T16:35:53;7.65;;;5.05;;
54384;SDS011;40284;52.878;5.998;2023-02-28T16:38:20;5.57;;;4.68;;
54384;SDS011;40284;52.878;5.998;2023-02-28T16:40:48;8.00;;;4.50;;
54384;SDS011;40284;52.878;5.998;2023-02-28T16:43:16;7.38;;;5.60;;
54384;SDS011;40284;52.878;5.998;2023-02-28T16:45:44;9.02;;;5.03;;
54384;SDS011;40284;52.878;5.998;2023-02-28T16:48:12;10.90;;;6.22;;
54384;SDS011;40284;52.878;5.998;2023-02-28T16:50:39;7.95;;;5.85;;
54384;SDS011;40284;52.878;5.998;2023-02-28T16:53:05;9.05;;;6.20;;
54384;SDS011;40284;52.878;5.998;2023-02-28T16:55:31;9.60;;;6.05;;
54384;SDS011;40284;52.878;5.998;2023-02-28T16:57:58;9.18;;;5.82;;
54384;SDS011;40284;52.878;5.998;2023-02-28T17:00:25;9.65;;;6.57;;
54384;SDS011;40284;52.878;5.998;2023-02-28T17:02:52;11.10;;;6.05;;
54384;SDS011;40284;52.878;5.998;2023-02-28T17:05:18;10.10;;;5.57;;
54384;SDS011;40284;52.878;5.998;2023-02-28T17:07:44;7.97;;;5.72;;
54384;SDS011;40284;52.878;5.998;2023-02-28T17:12:37;6.88;;;5.32;;